Time;durP1;ratioP1;P1;durP2;ratioP2;P2;SDS_P1;SDS_P2;PMS_P1;PMS_P2;Temp;Humidity;BMP_temperature;BMP_pressure;BME280_temperature;BME280_humidity;BME280_pressure;Samples;Min_cycle;Max_cycle;Signal;HPM_P1;HPM_P2
2022/11/26 00:01:51;;;;;;;45.78;23.95;;;;;;;0.40;83.72;101782.66;1740377;80;25757;-62
2022/11/26 00:04:18;;;;;;;41.88;22.02;;;;;;;0.38;83.79;101785.33;1738907;82;26416;-62
2022/11/26 00:06:45;;;;;;;45.55;23.25;;;;;;;0.39;83.83;101789.72;1737263;81;26575;-62
2022/11/26 00:09:15;;;;;;;46.30;23.67;;;;;;;0.44;83.82;101789.14;1738740;82;25921;-62
2022/11/26 00:11:42;;;;;;;44.00;23.00;;;;;;;0.47;83.79;101794.80;1736840;81;27447;-61
2022/11/26 00:14:16;;;;;;;48.23;24.12;;;;;;;0.53;83.74;101796.40;1759155;80;25839;-62
2022/11/26 00:16:43;;;;;;;;;;;;;;;0.58;83.66;101795.79;1767571;80;25815;-62
2022/11/26 00:19:10;;;;;;;45.38;24.32;;;;;;;0.61;83.44;101797.88;1738035;81;25780;-62
2022/11/26 00:21:40;;;;;;;49.38;22.75;;;;;;;0.63;83.38;101801.80;1752175;80;25475;-62
2022/11/26 00:24:26;;;;;;;49.08;23.73;;;;;;;0.67;83.40;101802.60;1772855;80;27599;-62
2022/11/26 00:26:55;;;;;;;44.50;23.70;;;;;;;0.70;83.21;101807.34;1769758;79;25661;-62
2022/11/26 00:29:22;;;;;;;42.70;23.87;;;;;;;0.73;83.00;101803.25;1764416;80;25774;-61
2022/11/26 00:31:49;;;;;;;41.77;22.93;;;;;;;0.71;82.76;101809.08;1781276;80;25867;-61
2022/11/26 00:34:16;;;;;;;46.88;23.32;;;;;;;0.71;82.81;101806.87;1759463;80;25746;-61
2022/11/26 00:36:44;;;;;;;42.93;23.65;;;;;;;0.73;82.68;101807.70;1738485;81;27498;-61
2022/11/26 00:39:18;;;;;;;44.05;22.58;;;;;;;0.74;82.56;101809.44;1737959;81;25685;-61
2022/11/26 00:41:50;;;;;;;49.90;22.27;;;;;;;0.75;82.56;101813.36;1738649;81;25815;-62
2022/11/26 00:44:24;;;;;;;47.25;22.70;;;;;;;0.74;82.44;101815.59;1738135;81;25813;-62
2022/11/26 00:46:51;;;;;;;41.00;22.35;;;;;;;0.72;82.36;101816.09;1764392;80;26094;-62
2022/11/26 00:49:19;;;;;;;47.88;23.45;;;;;;;0.73;82.45;101805.91;1781464;80;27502;-62
2022/11/26 00:51:47;;;;;;;43.00;22.02;;;;;;;0.74;82.35;101810.29;1779996;80;25791;-61
2022/11/26 00:54:17;;;;;;;39.53;22.02;;;;;;;0.71;82.36;101807.76;1772322;80;25796;-61
2022/11/26 00:56:45;;;;;;;48.65;21.70;;;;;;;0.71;82.32;101806.87;1770949;81;26487;-62
2022/11/26 00:59:16;;;;;;;41.28;21.52;;;;;;;0.73;82.28;101807.70;1751990;81;25767;-62
2022/11/26 01:01:43;;;;;;;44.00;22.20;;;;;;;0.73;82.10;101809.02;1741373;82;26761;-61
2022/11/26 01:04:10;;;;;;;42.62;23.10;;;;;;;0.70;82.09;101810.44;1741136;82;25482;-61
2022/11/26 01:06:42;;;;;;;46.30;21.73;;;;;;;0.65;82.12;101807.07;1741479;81;26291;-61
2022/11/26 01:09:20;;;;;;;40.83;22.32;;;;;;;0.57;82.19;101808.17;1743741;79;27935;-61
2022/11/26 01:11:47;;;;;;;44.48;23.65;;;;;;;0.56;82.31;101808.20;1743917;82;25839;-62
2022/11/26 01:14:18;;;;;;;42.53;22.32;;;;;;;0.49;82.47;101806.22;1743527;82;27515;-61
2022/11/26 01:16:47;;;;;;;45.67;23.77;;;;;;;0.43;82.63;101810.34;1709272;83;26751;-62
2022/11/26 01:19:15;;;;;;;40.73;22.30;;;;;;;0.39;82.72;101799.45;1741170;82;25785;-62
2022/11/26 01:21:42;;;;;;;43.17;22.75;;;;;;;0.37;82.93;101801.27;1741668;82;26403;-62
2022/11/26 01:24:09;;;;;;;47.23;24.87;;;;;;;0.34;82.96;101802.23;1756548;81;25799;-61
2022/11/26 01:26:40;;;;;;;41.23;22.48;;;;;;;0.31;83.22;101799.67;1791111;79;28129;-61
2022/11/26 01:29:16;;;;;;;47.20;24.02;;;;;;;0.28;83.25;101801.06;1759127;79;25954;-62
2022/11/26 01:31:43;;;;;;;39.83;21.97;;;;;;;0.24;83.55;101799.44;1762596;80;25765;-62
2022/11/26 01:34:11;;;;;;;43.40;23.55;;;;;;;0.23;83.65;101796.37;1739847;81;25815;-62
2022/11/26 01:36:40;;;;;;;48.78;25.25;;;;;;;0.21;83.77;101803.48;1758659;80;25531;-61
2022/11/26 01:39:17;;;;;;;49.18;22.87;;;;;;;0.17;83.85;101800.06;1780532;79;27560;-62
2022/11/26 01:42:15;;;;;;;49.48;24.63;;;;;;;0.18;84.10;101796.52;1786824;80;25789;-61
2022/11/26 01:44:42;;;;;;;44.38;23.92;;;;;;;0.14;84.24;101796.17;1741986;79;25494;-61
2022/11/26 01:47:23;;;;;;;45.10;24.47;;;;;;;0.08;84.52;101792.39;1764291;79;25774;-62
2022/11/26 01:50:29;;;;;;;46.37;24.40;;;;;;;0.02;84.86;101792.09;1762308;80;25671;-62
2022/11/26 01:53:03;;;;;;;46.23;23.85;;;;;;;-0.03;85.27;101796.20;1781306;80;27539;-61
2022/11/26 01:55:41;;;;;;;43.55;22.93;;;;;;;-0.05;85.64;101796.72;1760125;80;26146;-62
2022/11/26 01:58:12;;;;;;;46.35;25.12;;;;;;;-0.04;85.87;101797.09;1764485;80;25755;-61
2022/11/26 02:00:40;;;;;;;52.95;25.23;;;;;;;-0.03;85.97;101791.38;1794671;78;25845;-61
2022/11/26 02:03:09;;;;;;;47.27;24.23;;;;;;;-0.01;85.94;101800.14;1802603;79;25726;-61
2022/11/26 02:05:43;;;;;;;48.95;23.73;;;;;;;-0.01;85.94;101797.03;1796808;79;27491;-62
2022/11/26 02:08:11;;;;;;;50.35;26.23;;;;;;;-0.01;85.95;101793.06;1743634;81;25770;-61
2022/11/26 02:10:38;;;;;;;52.88;24.80;;;;;;;0.02;85.99;101800.51;1743385;81;25766;-61
2022/11/26 02:13:05;;;;;;;47.80;26.33;;;;;;;0.02;85.92;101800.03;1743797;81;25722;-61
2022/11/26 02:15:37;;;;;;;47.98;23.00;;;;;;;0.08;85.93;101801.65;1743899;80;26964;-61
2022/11/26 02:18:08;;;;;;;47.05;25.32;;;;;;;0.14;85.84;101805.44;1775223;80;27481;-62
2022/11/26 02:21:02;;;;;;;48.08;23.80;;;;;;;0.17;85.75;101800.06;1775457;80;25738;-61
2022/11/26 02:24:08;;;;;;;43.20;22.50;;;;;;;0.24;85.61;101799.44;1776505;79;25659;-61
2022/11/26 02:27:18;;;;;;;43.13;22.22;;;;;;;0.33;85.41;101804.91;1775949;79;25890;-61
2022/11/26 02:30:06;;;;;;;45.35;23.70;;;;;;;0.41;85.21;101806.87;1775559;80;53793;-62
2022/11/26 02:33:02;;;;;;;43.90;23.40;;;;;;;0.44;84.85;101809.00;1766004;79;27485;-61
2022/11/26 02:35:54;;;;;;;42.65;21.87;;;;;;;0.48;84.69;101814.19;1740305;82;25851;-62
2022/11/26 02:38:26;;;;;;;50.52;24.27;;;;;;;0.50;84.55;101810.57;1740238;81;25830;-61
2022/11/26 02:40:53;;;;;;;43.00;23.20;;;;;;;0.60;84.93;101813.36;1739883;82;25805;-62
2022/11/26 02:43:20;;;;;;;45.73;23.35;;;;;;;0.67;84.55;101808.75;1771680;79;27261;-61
2022/11/26 02:45:54;;;;;;;45.70;24.63;;;;;;;0.72;84.30;101816.55;1791537;80;27468;-62
2022/11/26 02:48:26;;;;;;;53.15;24.85;;;;;;;0.73;83.95;101815.65;1793691;79;25758;-61
2022/11/26 02:51:05;;;;;;;49.23;23.02;;;;;;;0.76;83.88;101825.69;1792994;79;26517;-62
2022/11/26 02:53:34;;;;;;;44.42;24.15;;;;;;;0.76;83.66;101815.56;1772464;79;25823;-62
2022/11/26 02:56:06;;;;;;;48.10;23.07;;;;;;;0.74;83.41;101822.69;1739882;82;25771;-62
2022/11/26 02:58:34;;;;;;;46.73;24.43;;;;;;;0.70;83.39;101819.70;1755847;80;27396;-61
2022/11/26 03:01:06;;;;;;;40.30;21.15;;;;;;;0.67;83.44;101821.99;1784400;78;25709;-62
2022/11/26 03:03:39;;;;;;;41.88;21.50;;;;;;;0.64;83.46;101819.90;1786217;80;26337;-62
2022/11/26 03:06:10;;;;;;;39.30;23.03;;;;;;;0.63;83.57;101825.63;1786121;79;25799;-62
2022/11/26 03:08:37;;;;;;;45.65;24.72;;;;;;;0.62;83.68;101833.20;1772357;79;25719;-62
2022/11/26 03:11:05;;;;;;;47.00;23.77;;;;;;;0.62;83.72;101826.11;1777876;80;26808;-62
2022/11/26 03:13:32;;;;;;;42.30;22.62;;;;;;;0.66;83.75;101832.17;1786132;80;25789;-62
2022/11/26 03:15:59;;;;;;;44.70;23.42;;;;;;;0.71;83.69;101830.71;1785857;80;25747;-62
2022/11/26 03:18:27;;;;;;;42.05;21.25;;;;;;;0.75;83.61;101832.37;1786940;80;26632;-62
2022/11/26 03:20:54;;;;;;;45.23;22.70;;;;;;;0.80;83.56;101830.91;1786499;80;25764;-62
2022/11/26 03:23:21;;;;;;;48.98;22.82;;;;;;;0.83;83.42;101836.97;1786693;80;27495;-62
2022/11/26 03:25:47;;;;;;;45.73;22.77;;;;;;;0.89;83.27;101835.45;1800125;79;25488;-62
2022/11/26 03:28:14;;;;;;;43.85;21.75;;;;;;;0.91;82.96;101834.06;1800215;79;25762;-62
2022/11/26 03:30:40;;;;;;;41.95;22.35;;;;;;;0.93;83.05;101836.22;1800041;79;25875;-62
2022/11/26 03:33:07;;;;;;;42.65;22.48;;;;;;;0.96;82.71;101833.92;1800383;79;25739;-62
2022/11/26 03:35:34;;;;;;;47.50;24.87;;;;;;;1.00;82.82;101832.92;1800289;79;27193;-62
2022/11/26 03:38:01;;;;;;;41.25;21.60;;;;;;;1.05;82.70;101838.50;1800144;79;25861;-61
2022/11/26 03:40:27;;;;;;;46.20;23.52;;;;;;;1.07;82.35;101846.38;1800250;79;26237;-61
2022/11/26 03:42:54;;;;;;;43.15;22.70;;;;;;;1.05;82.09;101838.94;1776634;79;25940;-61
2022/11/26 03:47:50;;;;;;;45.08;22.80;;;;;;;1.11;82.02;101847.16;1857511;76;25402;-62
2022/11/26 03:50:17;;;;;;;51.28;24.43;;;;;;;1.03;81.86;101849.59;1820236;78;25646;-62
2022/11/26 03:52:44;;;;;;;45.10;23.35;;;;;;;0.99;81.68;101852.39;1820594;78;27635;-62
2022/11/26 03:55:11;;;;;;;42.50;23.40;;;;;;;1.00;82.09;101856.30;1821821;78;25755;-62
2022/11/26 03:57:38;;;;;;;42.10;22.65;;;;;;;1.04;82.07;101859.28;1816850;78;25704;-62
2022/11/26 04:00:08;;;;;;;46.58;21.95;;;;;;;1.06;81.94;101865.41;1819484;78;27045;-62
2022/11/26 04:02:36;;;;;;;45.15;24.63;;;;;;;1.09;81.86;101859.14;1814073;79;25705;-63
2022/11/26 04:05:04;;;;;;;48.80;21.95;;;;;;;1.12;81.71;101874.92;1818783;77;28180;-62
2022/11/26 04:07:31;;;;;;;37.67;20.72;;;;;;;1.09;81.36;101870.59;1823338;78;25785;-63
2022/11/26 04:09:58;;;;;;;45.43;23.27;;;;;;;1.11;81.57;101874.98;1820047;78;25772;-62
2022/11/26 04:12:25;;;;;;;47.40;23.62;;;;;;;1.15;81.54;101882.79;1817910;78;26406;-62
2022/11/26 04:14:51;;;;;;;43.58;24.05;;;;;;;1.18;81.63;101883.14;1816488;78;25751;-61
2022/11/26 04:17:20;;;;;;;39.75;22.62;;;;;;;1.21;81.63;101875.11;1803219;77;27465;-61
2022/11/26 04:19:48;;;;;;;43.30;22.45;;;;;;;1.28;81.64;101877.97;1819546;77;25702;-62
2022/11/26 04:22:15;;;;;;;39.13;20.60;;;;;;;1.34;81.74;101881.77;1814199;78;25764;-61
2022/11/26 04:24:42;;;;;;;39.50;21.87;;;;;;;1.39;81.37;101876.31;1820963;77;25426;-61
2022/11/26 04:27:08;;;;;;;40.35;21.25;;;;;;;1.40;81.24;101886.86;1823400;78;25724;-61
2022/11/26 04:29:36;;;;;;;36.48;21.65;;;;;;;1.35;80.87;101890.10;1823498;78;27327;-61
2022/11/26 04:32:05;;;;;;;46.15;22.98;;;;;;;1.38;81.12;101893.99;1823058;78;25772;-62
2022/11/26 04:34:32;;;;;;;41.92;21.37;;;;;;;1.36;80.73;101895.82;1823576;77;25744;-61
2022/11/26 04:36:59;;;;;;;37.08;20.20;;;;;;;1.42;81.19;101908.02;1823447;77;25857;-61
2022/11/26 04:39:26;;;;;;;36.80;20.75;;;;;;;1.46;80.83;101908.34;1823340;78;25763;-61
2022/11/26 04:41:53;;;;;;;37.17;21.62;;;;;;;1.41;80.66;101906.28;1823323;78;28071;-61
2022/11/26 04:44:21;;;;;;;40.95;23.12;;;;;;;1.46;81.22;101905.69;1823323;78;25745;-61
2022/11/26 04:46:48;;;;;;;45.35;22.55;;;;;;;1.50;80.57;101908.64;1826098;78;26405;-61
2022/11/26 04:49:15;;;;;;;40.20;21.48;;;;;;;1.54;80.67;101913.38;1829380;78;25490;-63
2022/11/26 04:51:43;;;;;;;41.63;22.58;;;;;;;1.53;80.54;101914.29;1829458;77;25808;-61
2022/11/26 04:54:10;;;;;;;41.48;22.60;;;;;;;1.53;80.68;101922.25;1828572;77;27492;-62
2022/11/26 04:56:37;;;;;;;40.98;21.50;;;;;;;1.49;80.46;101923.28;1801770;78;25996;-62
2022/11/26 04:59:04;;;;;;;39.13;21.70;;;;;;;1.42;80.27;101917.77;1829211;77;25678;-62
2022/11/26 05:01:30;;;;;;;33.73;19.32;;;;;;;1.40;80.39;101909.84;1828808;77;26133;-62
2022/11/26 05:03:58;;;;;;;37.33;20.12;;;;;;;1.46;80.56;101915.41;1828912;77;25724;-62
2022/11/26 05:06:25;;;;;;;41.90;20.35;;;;;;;1.44;80.37;101909.28;1828525;77;27548;-62
2022/11/26 05:08:53;;;;;;;37.23;20.00;;;;;;;1.46;80.62;101908.78;1828731;78;26124;-62
2022/11/26 05:11:20;;;;;;;34.95;20.10;;;;;;;1.46;80.34;101912.32;1828518;77;25712;-62
2022/11/26 05:13:46;;;;;;;36.05;20.08;;;;;;;1.44;80.48;101912.82;1820637;77;25935;-62
2022/11/26 05:16:13;;;;;;;35.28;19.77;;;;;;;1.47;80.64;101911.84;1787244;78;25820;-62
2022/11/26 05:18:41;;;;;;;47.30;22.30;;;;;;;1.47;80.62;101911.41;1814625;78;29610;-62
2022/11/26 05:21:09;;;;;;;35.88;19.55;;;;;;;1.42;80.33;101910.67;1791585;80;25801;-62
2022/11/26 05:23:36;;;;;;;35.48;20.72;;;;;;;1.36;80.32;101918.83;1746972;80;25693;-62
2022/11/26 05:26:06;;;;;;;35.15;19.62;;;;;;;1.28;80.54;101924.83;1764145;81;25840;-61
2022/11/26 05:28:32;;;;;;;37.98;20.17;;;;;;;1.25;80.92;101931.95;1756256;80;27364;-62
2022/11/26 05:31:02;;;;;;;36.75;19.50;;;;;;;1.23;80.98;101923.17;1770140;80;28676;-61
2022/11/26 05:33:29;;;;;;;39.70;20.15;;;;;;;1.25;81.24;101936.41;1769169;80;26067;-62
2022/11/26 05:35:58;;;;;;;40.25;20.75;;;;;;;1.24;81.18;101933.34;1766066;78;25853;-62
2022/11/26 05:38:26;;;;;;;35.45;20.32;;;;;;;1.20;81.37;101936.98;1785781;80;26441;-62
2022/11/26 05:40:53;;;;;;;34.63;19.32;;;;;;;1.16;81.41;101937.54;1792291;78;25746;-62
2022/11/26 05:43:20;;;;;;;38.02;20.05;;;;;;;1.15;81.60;101935.80;1792668;80;27459;-62
2022/11/26 05:45:46;;;;;;;39.13;21.60;;;;;;;1.15;81.68;101937.59;1792408;80;25902;-62
2022/11/26 05:48:13;;;;;;;38.80;22.25;;;;;;;1.16;81.78;101940.19;1787597;80;25882;-62
2022/11/26 05:50:40;;;;;;;37.30;19.70;;;;;;;1.17;81.80;101939.72;1787462;80;25952;-61
2022/11/26 05:53:07;;;;;;;36.33;18.87;;;;;;;1.18;81.88;101945.00;1749342;80;27391;-62
2022/11/26 05:55:34;;;;;;;35.45;20.32;;;;;;;1.27;81.87;101946.95;1729073;81;27458;-62
2022/11/26 05:58:01;;;;;;;36.50;18.87;;;;;;;1.31;81.74;101953.44;1771870;80;25962;-61
2022/11/26 06:00:29;;;;;;;34.15;18.87;;;;;;;1.39;81.87;101947.91;1781840;79;25757;-62
2022/11/26 06:02:56;;;;;;;34.48;18.52;;;;;;;1.50;82.14;101961.67;1781263;80;25640;-62
2022/11/26 06:05:23;;;;;;;29.95;16.87;;;;;;;1.62;82.04;101965.72;1781540;80;25805;-61
2022/11/26 06:07:50;;;;;;;37.30;18.80;;;;;;;1.68;81.59;101965.55;1781369;80;28167;-61
2022/11/26 06:10:18;;;;;;;37.53;18.17;;;;;;;1.72;81.58;101965.84;1781427;80;25872;-61
2022/11/26 06:12:45;;;;;;;32.08;17.30;;;;;;;1.81;81.46;101967.78;1781623;80;25734;-61
2022/11/26 06:15:12;;;;;;;43.83;19.75;;;;;;;1.82;81.13;101967.75;1779886;80;25776;-61
2022/11/26 06:17:39;;;;;;;38.05;21.00;;;;;;;1.80;80.57;101968.70;1785346;80;25721;-62
2022/11/26 06:20:10;;;;;;;34.73;19.17;;;;;;;1.71;80.36;101968.08;1787279;80;27405;-62
2022/11/26 06:22:38;;;;;;;39.25;21.02;;;;;;;1.72;80.41;101972.95;1787264;80;25697;-62
2022/11/26 06:25:08;;;;;;;38.28;21.33;;;;;;;1.69;80.25;101975.69;1787516;79;25887;-62
2022/11/26 06:27:36;;;;;;;39.65;20.60;;;;;;;1.64;80.16;101986.44;1787670;80;25926;-62
2022/11/26 06:30:08;;;;;;;36.88;20.48;;;;;;;1.63;80.26;101987.36;1787607;80;25932;-62
2022/11/26 06:32:35;;;;;;;35.45;20.40;;;;;;;1.64;80.30;101990.42;1775090;80;27480;-62
2022/11/26 06:35:03;;;;;;;34.03;19.60;;;;;;;1.66;80.28;101994.38;1782023;80;25840;-62
2022/11/26 06:37:32;;;;;;;38.05;20.20;;;;;;;1.64;79.96;101991.75;1779547;80;25725;-62
2022/11/26 06:39:59;;;;;;;33.20;19.00;;;;;;;1.63;80.05;101997.97;1781317;79;25785;-62
2022/11/26 06:42:26;;;;;;;36.05;20.52;;;;;;;1.64;79.96;101997.05;1787355;80;25476;-62
2022/11/26 06:44:53;;;;;;;39.35;20.65;;;;;;;1.68;80.13;101992.52;1783219;80;27590;-62
2022/11/26 06:47:19;;;;;;;38.60;20.90;;;;;;;1.70;79.77;101988.89;1786939;80;25686;-62
2022/11/26 06:49:46;;;;;;;38.42;20.65;;;;;;;1.78;80.00;101986.48;1785391;80;25821;-62
2022/11/26 06:52:13;;;;;;;41.48;22.10;;;;;;;1.90;79.74;101994.49;1787192;80;25769;-62
2022/11/26 06:54:40;;;;;;;35.75;20.15;;;;;;;2.05;79.93;101995.30;1732393;80;25840;-61
2022/11/26 06:57:08;;;;;;;42.85;22.00;;;;;;;2.17;79.44;102000.22;1784820;80;27544;-62
2022/11/26 06:59:35;;;;;;;38.08;20.97;;;;;;;2.24;78.74;101994.69;1784679;80;25791;-61
2022/11/26 07:02:02;;;;;;;39.15;21.68;;;;;;;2.29;77.89;101989.64;1785075;80;25739;-62
2022/11/26 07:04:29;;;;;;;37.45;21.75;;;;;;;2.39;77.66;101995.95;1784483;80;25714;-62
2022/11/26 07:06:56;;;;;;;41.68;21.65;;;;;;;2.43;77.67;101991.81;1747935;81;25774;-62
2022/11/26 07:09:22;;;;;;;40.92;22.42;;;;;;;2.46;76.56;102001.46;1767161;81;27461;-62
2022/11/26 07:11:49;;;;;;;37.60;20.72;;;;;;;2.56;77.06;102006.86;1767252;81;27291;-62
2022/11/26 07:14:16;;;;;;;33.18;20.37;;;;;;;2.63;76.22;102008.38;1767104;81;25733;-62
2022/11/26 07:16:43;;;;;;;33.75;20.05;;;;;;;2.68;76.37;102011.34;1779669;78;25795;-62
2022/11/26 07:19:13;;;;;;;34.23;20.45;;;;;;;2.73;75.72;102017.34;1768965;79;25806;-62
2022/11/26 07:21:40;;;;;;;37.30;21.37;;;;;;;2.72;75.72;102016.49;1770278;80;27456;-62
2022/11/26 07:24:07;;;;;;;36.70;19.85;;;;;;;2.70;75.25;102026.30;1782977;80;25725;-62
2022/11/26 07:26:34;;;;;;;39.15;21.80;;;;;;;2.72;75.21;102035.54;1786651;80;25701;-62
2022/11/26 07:29:01;;;;;;;34.40;19.10;;;;;;;2.73;75.01;102034.18;1787385;78;25934;-62
2022/11/26 07:31:28;;;;;;;34.60;19.20;;;;;;;2.71;74.98;102045.31;1786968;80;27349;-62
2022/11/26 07:33:56;;;;;;;39.50;22.13;;;;;;;2.75;75.07;102038.09;1787047;78;27587;-62
2022/11/26 07:36:29;;;;;;;38.80;21.10;;;;;;;2.87;75.92;102040.77;1786549;80;25756;-62
2022/11/26 07:38:58;;;;;;;37.70;20.43;;;;;;;3.05;75.55;102042.77;1787059;80;25484;-62
2022/11/26 07:41:27;;;;;;;39.08;21.23;;;;;;;3.09;75.06;102050.17;1782525;80;25875;-62
2022/11/26 07:43:54;;;;;;;36.55;21.77;;;;;;;3.06;74.61;102045.84;1786911;80;25906;-62
2022/11/26 07:46:24;;;;;;;37.55;21.15;;;;;;;3.05;74.21;102053.41;1782915;80;27437;-62
2022/11/26 07:48:51;;;;;;;42.88;21.20;;;;;;;3.05;73.86;102056.06;1770212;80;25782;-62
2022/11/26 07:51:21;;;;;;;45.95;21.55;;;;;;;2.95;73.21;102058.20;1782279;80;25634;-62
2022/11/26 07:53:49;;;;;;;35.58;19.67;;;;;;;2.85;73.88;102052.80;1762552;80;25778;-62
2022/11/26 07:56:18;;;;;;;36.90;21.12;;;;;;;2.92;74.37;102056.97;1762809;80;25743;-62
2022/11/26 07:58:45;;;;;;;35.33;20.80;;;;;;;2.93;73.83;102052.51;1737582;81;28274;-62
2022/11/26 08:01:22;;;;;;;38.23;20.00;;;;;;;2.93;74.35;102052.51;1768473;80;25696;-62
2022/11/26 08:03:50;;;;;;;39.75;21.30;;;;;;;2.96;74.52;102055.92;1769518;80;25698;-62
2022/11/26 08:06:21;;;;;;;51.48;20.80;;;;;;;3.01;74.18;102058.89;1767992;80;25686;-61
2022/11/26 08:08:49;;;;;;;35.17;19.07;;;;;;;3.07;74.67;102058.66;1785995;80;25798;-62
2022/11/26 08:11:23;;;;;;;40.40;18.95;;;;;;;3.10;73.73;102059.41;1767709;80;27604;-62
2022/11/26 08:13:58;;;;;;;30.08;18.95;;;;;;;3.11;73.59;102060.30;1774346;80;25761;-62
2022/11/26 08:16:25;;;;;;;35.73;18.65;;;;;;;3.14;73.47;102065.48;1766785;80;25787;-62
2022/11/26 08:18:58;;;;;;;33.80;18.20;;;;;;;3.20;73.97;102065.72;1782375;79;26642;-62
2022/11/26 08:21:25;;;;;;;32.75;18.00;;;;;;;3.25;73.90;102065.11;1783330;80;25790;-62
2022/11/26 08:23:53;;;;;;;29.35;17.40;;;;;;;3.27;73.23;102064.12;1782104;79;28178;-62
2022/11/26 08:26:21;;;;;;;32.98;17.82;;;;;;;3.24;72.26;102066.88;1784423;79;25457;-62
2022/11/26 08:28:48;;;;;;;30.52;15.50;;;;;;;3.32;72.89;102069.74;1778290;80;25703;-62
2022/11/26 08:31:17;;;;;;;28.07;16.50;;;;;;;3.39;72.70;102073.42;1781696;80;26177;-61
2022/11/26 08:33:44;;;;;;;30.25;16.70;;;;;;;3.47;72.92;102073.15;1784731;80;25725;-62
2022/11/26 08:36:12;;;;;;;31.52;19.00;;;;;;;3.45;72.02;102078.98;1784909;79;27089;-62
2022/11/26 08:38:39;;;;;;;31.25;17.50;;;;;;;3.39;71.68;102080.55;1784227;79;25785;-62
2022/11/26 08:41:10;;;;;;;28.70;16.37;;;;;;;3.43;72.19;102076.39;1780518;80;26389;-62
2022/11/26 08:43:38;;;;;;;37.95;19.42;;;;;;;3.40;71.99;102077.83;1779028;79;26534;-62
2022/11/26 08:46:06;;;;;;;31.77;18.60;;;;;;;3.49;71.81;102085.05;1767622;81;25956;-61
2022/11/26 08:48:34;;;;;;;32.95;19.05;;;;;;;3.48;71.62;102082.87;1764017;80;27582;-61
2022/11/26 08:51:08;;;;;;;36.45;19.25;;;;;;;3.61;70.65;102077.95;1761231;81;25821;-61
2022/11/26 08:53:36;;;;;;;36.30;18.23;;;;;;;3.67;70.93;102072.38;1774848;80;25815;-61
2022/11/26 08:56:09;;;;;;;31.75;18.52;;;;;;;3.63;70.20;102077.40;1774610;80;25756;-62
2022/11/26 08:58:40;;;;;;;29.15;16.73;;;;;;;3.69;70.74;102086.95;1769009;80;26035;-62
2022/11/26 09:01:21;;;;;;;42.95;17.62;;;;;;;3.74;70.14;102085.84;1765918;80;28448;-62
2022/11/26 09:03:55;;;;;;;32.93;15.25;;;;;;;3.85;70.03;102085.45;1776884;79;26482;-62
2022/11/26 09:06:28;;;;;;;31.45;16.75;;;;;;;3.87;69.46;102084.05;1768504;80;25753;-63
2022/11/26 09:09:13;;;;;;;33.90;18.45;;;;;;;3.88;69.03;102097.29;1780941;79;25903;-61
2022/11/26 09:11:54;;;;;;;37.90;18.00;;;;;;;3.96;69.10;102082.35;1776663;80;25750;-61
2022/11/26 09:14:26;;;;;;;29.40;16.60;;;;;;;4.12;69.23;102092.38;1773442;80;26953;-61
2022/11/26 09:16:56;;;;;;;28.32;15.58;;;;;;;4.19;68.58;102085.42;1758298;79;25471;-60
2022/11/26 09:19:24;;;;;;;22.65;14.18;;;;;;;4.29;68.18;102091.23;1770695;80;25808;-61
2022/11/26 09:21:51;;;;;;;30.27;16.45;;;;;;;4.65;67.63;102079.11;1773300;80;26272;-61
2022/11/26 09:24:18;;;;;;;28.30;15.53;;;;;;;4.93;66.45;102073.92;1781760;80;25752;-61
2022/11/26 09:26:47;;;;;;;24.92;16.25;;;;;;;5.19;67.54;102078.56;1728637;80;26159;-61
2022/11/26 09:29:17;;;;;;;25.23;15.68;;;;;;;5.32;66.27;102074.38;1774701;80;26438;-61
2022/11/26 09:31:46;;;;;;;30.80;16.02;;;;;;;5.52;64.87;102074.79;1764303;80;25885;-61
2022/11/26 09:34:14;;;;;;;25.00;14.53;;;;;;;5.55;65.32;102076.48;1763491;80;26084;-61
2022/11/26 09:36:41;;;;;;;26.77;16.12;;;;;;;5.70;64.32;102075.75;1775244;80;25829;-61
2022/11/26 09:39:10;;;;;;;32.93;16.12;;;;;;;5.53;63.47;102073.86;1774548;80;27462;-61
2022/11/26 09:42:01;;;;;;;24.63;15.28;;;;;;;5.38;64.51;102078.09;1764128;80;25817;-61
2022/11/26 09:44:55;;;;;;;25.52;14.83;;;;;;;5.46;65.40;102080.42;1743285;82;25784;-62
2022/11/26 09:47:37;;;;;;;29.37;15.83;;;;;;;5.68;64.62;102073.61;1766987;80;26445;-62
2022/11/26 09:50:21;;;;;;;22.32;14.83;;;;;;;5.74;64.70;102084.48;1761200;81;25746;-62
2022/11/26 09:53:01;;;;;;;28.57;14.93;;;;;;;5.42;62.63;102090.38;1762268;80;27535;-62
2022/11/26 09:55:32;;;;;;;21.85;14.23;;;;;;;5.21;63.07;102085.55;1768163;80;25795;-62
2022/11/26 09:58:40;;;;;;;24.65;15.98;;;;;;;5.32;63.65;102083.72;1775347;80;25768;-62
2022/11/26 10:01:12;;;;;;;28.80;16.70;;;;;;;5.75;62.60;102083.06;1774639;80;25804;-62
2022/11/26 10:03:40;;;;;;;20.12;12.53;;;;;;;5.73;62.63;102084.08;1775329;80;25846;-62
2022/11/26 10:06:29;;;;;;;24.02;14.10;;;;;;;5.73;62.72;102078.28;1747560;80;27544;-62
2022/11/26 10:09:33;;;;;;;22.45;13.70;;;;;;;5.45;61.78;102094.25;1777741;79;25873;-62
2022/11/26 10:12:14;;;;;;;21.93;14.83;;;;;;;5.12;62.74;102082.81;1756998;79;26364;-62
2022/11/26 10:14:57;;;;;;;22.35;13.88;;;;;;;4.89;63.52;102078.48;1776434;80;27666;-62
2022/11/26 10:17:48;;;;;;;20.85;13.13;;;;;;;4.98;64.42;102076.76;1778825;79;27414;-62
2022/11/26 10:20:35;;;;;;;25.35;15.58;;;;;;;5.04;64.22;102080.10;1783452;80;27612;-62
2022/11/26 10:23:18;;;;;;;22.80;13.32;;;;;;;4.96;64.17;102087.09;1777567;80;25671;-62
2022/11/26 10:25:55;;;;;;;22.77;14.57;;;;;;;4.90;64.01;102087.37;1730533;79;25751;-62
2022/11/26 10:28:45;;;;;;;28.45;15.90;;;;;;;4.80;64.12;102085.11;1774510;80;27649;-62
2022/11/26 10:31:20;;;;;;;27.52;15.63;;;;;;;4.70;64.33;102081.09;1746022;80;25832;-62
2022/11/26 10:34:00;;;;;;;22.98;13.68;;;;;;;4.74;64.76;102084.05;1766119;80;27649;-62
2022/11/26 10:36:41;;;;;;;22.60;13.08;;;;;;;4.80;65.47;102083.77;1770131;80;26424;-62
2022/11/26 10:39:12;;;;;;;19.45;12.45;;;;;;;4.90;65.09;102091.37;1736498;80;25720;-62
2022/11/26 10:41:39;;;;;;;22.95;12.33;;;;;;;4.86;65.42;102083.98;1762832;80;26596;-61
2022/11/26 10:44:34;;;;;;;21.95;13.83;;;;;;;4.84;65.76;102084.50;1764588;80;25724;-62
2022/11/26 10:47:22;;;;;;;;;;;;;;;4.81;65.81;102093.95;1777164;80;28419;-62
2022/11/26 10:49:57;;;;;;;21.17;11.85;;;;;;;4.74;65.63;102087.16;1775160;80;25746;-62
2022/11/26 10:52:31;;;;;;;24.72;12.68;;;;;;;4.78;65.43;102092.78;1751408;80;25758;-62
2022/11/26 10:55:30;;;;;;;20.55;12.30;;;;;;;4.77;65.32;102090.56;1762991;80;25680;-62
2022/11/26 10:58:05;;;;;;;20.57;11.78;;;;;;;4.79;65.86;102092.70;1774211;80;25758;-62
2022/11/26 11:00:40;;;;;;;18.73;11.60;;;;;;;4.89;65.75;102090.97;1775127;80;27580;-62
2022/11/26 11:03:22;;;;;;;18.40;11.55;;;;;;;4.84;64.99;102093.84;1785824;80;25919;-62
2022/11/26 11:05:49;;;;;;;20.32;12.33;;;;;;;4.83;65.01;102098.77;1773962;80;26550;-62
2022/11/26 11:08:32;;;;;;;23.15;12.95;;;;;;;4.81;65.35;102099.30;1775496;80;25731;-62
2022/11/26 11:11:02;;;;;;;19.48;12.33;;;;;;;4.83;65.46;102093.44;1770853;80;25798;-62
2022/11/26 11:13:42;;;;;;;24.07;11.60;;;;;;;4.89;65.72;102094.49;1740446;80;28302;-61
2022/11/26 11:16:11;;;;;;;25.57;12.88;;;;;;;4.94;65.40;102094.29;1785426;78;25702;-61
2022/11/26 11:18:52;;;;;;;23.45;13.83;;;;;;;4.90;65.69;102097.56;1787569;78;25780;-61
2022/11/26 11:21:20;;;;;;;23.55;13.05;;;;;;;4.79;65.48;102098.52;1782272;78;25675;-61
2022/11/26 11:23:47;;;;;;;17.42;11.00;;;;;;;4.73;65.95;102096.09;1793775;78;25943;-61
2022/11/26 11:26:22;;;;;;;20.97;11.57;;;;;;;4.72;66.51;102095.23;1786287;78;27483;-61
2022/11/26 11:28:52;;;;;;;20.60;11.38;;;;;;;4.77;66.64;102099.04;1793423;78;25837;-61
2022/11/26 11:31:23;;;;;;;21.37;11.05;;;;;;;4.79;66.99;102092.70;1792354;78;25779;-61
2022/11/26 11:33:51;;;;;;;22.13;12.33;;;;;;;4.88;66.91;102098.56;1757884;81;25886;-62
2022/11/26 11:36:27;;;;;;;22.62;11.83;;;;;;;4.93;66.99;102097.44;1786293;78;25781;-61
2022/11/26 11:39:00;;;;;;;20.23;11.68;;;;;;;5.03;67.07;102102.38;1770734;80;28361;-61